sensor_id;sensor_type;location;lat;lon;timestamp;P1;durP1;ratioP1;P2;durP2;ratioP2
21213;SDS011;10764;50.850;2.904;2022-07-30T00:01:31;254.05;;;233.32;;
21213;SDS011;10764;50.850;2.904;2022-07-30T00:04:01;295.05;;;270.10;;
21213;SDS011;10764;50.850;2.904;2022-07-30T00:06:28;275.52;;;252.55;;
21213;SDS011;10764;50.850;2.904;2022-07-30T00:08:56;271.30;;;248.68;;
21213;SDS011;10764;50.850;2.904;2022-07-30T00:11:23;283.75;;;260.15;;
21213;SDS011;10764;50.850;2.904;2022-07-30T00:13:53;285.57;;;261.57;;
21213;SDS011;10764;50.850;2.904;2022-07-30T00:16:21;272.75;;;250.15;;
21213;SDS011;10764;50.850;2.904;2022-07-30T00:18:48;283.23;;;259.30;;
21213;SDS011;10764;50.850;2.904;2022-07-30T00:21:16;278.92;;;255.73;;
21213;SDS011;10764;50.850;2.904;2022-07-30T00:24:00;261.65;;;240.10;;
21213;SDS011;10764;50.850;2.904;2022-07-30T00:26:27;275.20;;;252.30;;
21213;SDS011;10764;50.850;2.904;2022-07-30T00:28:55;278.52;;;255.32;;
21213;SDS011;10764;50.850;2.904;2022-07-30T00:31:22;256.48;;;235.40;;
21213;SDS011;10764;50.850;2.904;2022-07-30T00:33:49;207.30;;;190.82;;
21213;SDS011;10764;50.850;2.904;2022-07-30T00:36:16;254.80;;;233.85;;
21213;SDS011;10764;50.850;2.904;2022-07-30T00:38:43;242.63;;;222.85;;
21213;SDS011;10764;50.850;2.904;2022-07-30T00:41:11;266.63;;;244.70;;
21213;SDS011;10764;50.850;2.904;2022-07-30T00:43:41;250.30;;;229.73;;
21213;SDS011;10764;50.850;2.904;2022-07-30T00:46:09;226.63;;;208.33;;
21213;SDS011;10764;50.850;2.904;2022-07-30T00:48:36;276.38;;;253.27;;
21213;SDS011;10764;50.850;2.904;2022-07-30T00:51:03;264.40;;;242.55;;
21213;SDS011;10764;50.850;2.904;2022-07-30T00:53:31;274.75;;;251.80;;
21213;SDS011;10764;50.850;2.904;2022-07-30T00:55:58;264.15;;;242.25;;
21213;SDS011;10764;50.850;2.904;2022-07-30T00:58:25;256.90;;;235.70;;
21213;SDS011;10764;50.850;2.904;2022-07-30T01:00:52;247.75;;;227.45;;
21213;SDS011;10764;50.850;2.904;2022-07-30T01:03:19;236.52;;;217.35;;
21213;SDS011;10764;50.850;2.904;2022-07-30T01:05:47;255.05;;;234.05;;
21213;SDS011;10764;50.850;2.904;2022-07-30T01:08:15;259.30;;;237.80;;
21213;SDS011;10764;50.850;2.904;2022-07-30T01:10:42;261.60;;;239.93;;
21213;SDS011;10764;50.850;2.904;2022-07-30T01:13:10;256.38;;;235.25;;
21213;SDS011;10764;50.850;2.904;2022-07-30T01:15:37;262.40;;;240.70;;
21213;SDS011;10764;50.850;2.904;2022-07-30T01:18:05;263.67;;;241.75;;
21213;SDS011;10764;50.850;2.904;2022-07-30T01:20:37;260.73;;;239.20;;
21213;SDS011;10764;50.850;2.904;2022-07-30T01:23:17;287.98;;;263.73;;
21213;SDS011;10764;50.850;2.904;2022-07-30T01:25:52;265.00;;;243.02;;
21213;SDS011;10764;50.850;2.904;2022-07-30T01:28:26;307.50;;;281.30;;
21213;SDS011;10764;50.850;2.904;2022-07-30T01:31:16;290.35;;;265.83;;
21213;SDS011;10764;50.850;2.904;2022-07-30T01:33:46;313.45;;;286.60;;
21213;SDS011;10764;50.850;2.904;2022-07-30T01:36:15;293.20;;;268.80;;
21213;SDS011;10764;50.850;2.904;2022-07-30T01:38:47;276.58;;;253.68;;
21213;SDS011;10764;50.850;2.904;2022-07-30T01:41:16;278.77;;;255.73;;
21213;SDS011;10764;50.850;2.904;2022-07-30T01:43:45;294.65;;;269.95;;
21213;SDS011;10764;50.850;2.904;2022-07-30T01:46:13;298.45;;;273.55;;
21213;SDS011;10764;50.850;2.904;2022-07-30T01:48:44;291.60;;;267.02;;
21213;SDS011;10764;50.850;2.904;2022-07-30T01:51:12;278.23;;;255.17;;
21213;SDS011;10764;50.850;2.904;2022-07-30T01:53:45;321.95;;;294.85;;
21213;SDS011;10764;50.850;2.904;2022-07-30T01:56:16;309.52;;;283.50;;
21213;SDS011;10764;50.850;2.904;2022-07-30T01:58:50;293.02;;;268.35;;
21213;SDS011;10764;50.850;2.904;2022-07-30T02:01:22;292.85;;;268.38;;
21213;SDS011;10764;50.850;2.904;2022-07-30T02:03:54;274.42;;;251.60;;
21213;SDS011;10764;50.850;2.904;2022-07-30T02:06:25;238.40;;;219.15;;
21213;SDS011;10764;50.850;2.904;2022-07-30T02:09:04;271.08;;;248.73;;
21213;SDS011;10764;50.850;2.904;2022-07-30T02:11:44;308.38;;;282.48;;
21213;SDS011;10764;50.850;2.904;2022-07-30T02:14:37;318.27;;;291.52;;
21213;SDS011;10764;50.850;2.904;2022-07-30T02:17:08;334.17;;;305.83;;
21213;SDS011;10764;50.850;2.904;2022-07-30T02:19:44;320.80;;;293.73;;
21213;SDS011;10764;50.850;2.904;2022-07-30T02:22:15;323.33;;;295.73;;
21213;SDS011;10764;50.850;2.904;2022-07-30T02:24:44;326.05;;;298.60;;
21213;SDS011;10764;50.850;2.904;2022-07-30T02:27:16;325.70;;;298.23;;
21213;SDS011;10764;50.850;2.904;2022-07-30T02:29:47;322.23;;;295.15;;
21213;SDS011;10764;50.850;2.904;2022-07-30T02:32:18;336.55;;;308.02;;
21213;SDS011;10764;50.850;2.904;2022-07-30T02:34:49;333.88;;;305.63;;
21213;SDS011;10764;50.850;2.904;2022-07-30T02:37:20;289.02;;;264.83;;
21213;SDS011;10764;50.850;2.904;2022-07-30T02:40:11;293.58;;;269.13;;
21213;SDS011;10764;50.850;2.904;2022-07-30T02:42:41;293.60;;;269.05;;
21213;SDS011;10764;50.850;2.904;2022-07-30T02:45:14;300.35;;;275.20;;
21213;SDS011;10764;50.850;2.904;2022-07-30T02:47:44;314.07;;;287.77;;
21213;SDS011;10764;50.850;2.904;2022-07-30T02:50:13;290.60;;;266.52;;
21213;SDS011;10764;50.850;2.904;2022-07-30T02:52:42;307.35;;;281.60;;
21213;SDS011;10764;50.850;2.904;2022-07-30T02:55:10;321.17;;;294.27;;
21213;SDS011;10764;50.850;2.904;2022-07-30T02:57:38;306.93;;;281.30;;
21213;SDS011;10764;50.850;2.904;2022-07-30T03:00:10;283.45;;;260.05;;
21213;SDS011;10764;50.850;2.904;2022-07-30T03:02:37;340.85;;;311.95;;
21213;SDS011;10764;50.850;2.904;2022-07-30T03:05:09;362.50;;;331.77;;
21213;SDS011;10764;50.850;2.904;2022-07-30T03:07:38;394.05;;;360.27;;
21213;SDS011;10764;50.850;2.904;2022-07-30T03:10:06;375.83;;;343.83;;
21213;SDS011;10764;50.850;2.904;2022-07-30T03:12:35;389.83;;;356.73;;
21213;SDS011;10764;50.850;2.904;2022-07-30T03:15:04;390.02;;;356.88;;
21213;SDS011;10764;50.850;2.904;2022-07-30T03:17:33;420.42;;;384.63;;
21213;SDS011;10764;50.850;2.904;2022-07-30T03:20:11;357.73;;;327.13;;
21213;SDS011;10764;50.850;2.904;2022-07-30T03:22:42;363.10;;;332.10;;
21213;SDS011;10764;50.850;2.904;2022-07-30T03:25:11;393.88;;;360.40;;
21213;SDS011;10764;50.850;2.904;2022-07-30T03:27:42;415.17;;;379.85;;
21213;SDS011;10764;50.850;2.904;2022-07-30T03:30:12;430.57;;;394.00;;
21213;SDS011;10764;50.850;2.904;2022-07-30T03:32:39;440.50;;;402.98;;
21213;SDS011;10764;50.850;2.904;2022-07-30T03:35:08;438.40;;;401.17;;
21213;SDS011;10764;50.850;2.904;2022-07-30T03:37:43;434.87;;;397.83;;
21213;SDS011;10764;50.850;2.904;2022-07-30T03:40:12;439.95;;;402.60;;
21213;SDS011;10764;50.850;2.904;2022-07-30T03:42:39;449.53;;;411.33;;
21213;SDS011;10764;50.850;2.904;2022-07-30T03:45:08;460.77;;;421.58;;
21213;SDS011;10764;50.850;2.904;2022-07-30T03:47:36;464.53;;;424.97;;
21213;SDS011;10764;50.850;2.904;2022-07-30T03:50:05;435.98;;;399.02;;
21213;SDS011;10764;50.850;2.904;2022-07-30T03:52:36;454.80;;;415.98;;
21213;SDS011;10764;50.850;2.904;2022-07-30T03:55:09;433.55;;;396.77;;
21213;SDS011;10764;50.850;2.904;2022-07-30T03:57:36;417.15;;;381.65;;
21213;SDS011;10764;50.850;2.904;2022-07-30T04:00:04;445.70;;;407.45;;
21213;SDS011;10764;50.850;2.904;2022-07-30T04:02:47;508.77;;;465.73;;
21213;SDS011;10764;50.850;2.904;2022-07-30T04:05:17;479.23;;;438.55;;
21213;SDS011;10764;50.850;2.904;2022-07-30T04:07:45;486.63;;;445.33;;
21213;SDS011;10764;50.850;2.904;2022-07-30T04:10:15;435.00;;;398.13;;
21213;SDS011;10764;50.850;2.904;2022-07-30T04:13:04;485.55;;;444.52;;
21213;SDS011;10764;50.850;2.904;2022-07-30T04:18:47;483.85;;;442.52;;
21213;SDS011;10764;50.850;2.904;2022-07-30T04:21:19;507.63;;;464.67;;
21213;SDS011;10764;50.850;2.904;2022-07-30T04:23:50;479.52;;;438.85;;
21213;SDS011;10764;50.850;2.904;2022-07-30T04:26:32;475.65;;;435.33;;
21213;SDS011;10764;50.850;2.904;2022-07-30T04:29:03;480.02;;;439.25;;
21213;SDS011;10764;50.850;2.904;2022-07-30T04:31:33;485.20;;;443.95;;
21213;SDS011;10764;50.850;2.904;2022-07-30T04:34:45;410.05;;;374.98;;
21213;SDS011;10764;50.850;2.904;2022-07-30T04:37:15;366.13;;;334.90;;
21213;SDS011;10764;50.850;2.904;2022-07-30T04:39:44;506.90;;;464.00;;
21213;SDS011;10764;50.850;2.904;2022-07-30T04:42:11;507.48;;;464.60;;
21213;SDS011;10764;50.850;2.904;2022-07-30T04:44:39;481.25;;;440.35;;
21213;SDS011;10764;50.850;2.904;2022-07-30T04:47:22;388.27;;;355.15;;
21213;SDS011;10764;50.850;2.904;2022-07-30T04:50:08;437.90;;;400.67;;
21213;SDS011;10764;50.850;2.904;2022-07-30T04:52:37;483.47;;;442.33;;
21213;SDS011;10764;50.850;2.904;2022-07-30T04:55:06;496.67;;;454.75;;
21213;SDS011;10764;50.850;2.904;2022-07-30T04:57:37;513.65;;;470.23;;
21213;SDS011;10764;50.850;2.904;2022-07-30T05:00:07;484.15;;;442.98;;
21213;SDS011;10764;50.850;2.904;2022-07-30T05:02:39;400.70;;;366.60;;
21213;SDS011;10764;50.850;2.904;2022-07-30T05:05:07;441.00;;;403.50;;
21213;SDS011;10764;50.850;2.904;2022-07-30T05:07:36;460.63;;;421.25;;
21213;SDS011;10764;50.850;2.904;2022-07-30T05:10:06;483.23;;;442.23;;
21213;SDS011;10764;50.850;2.904;2022-07-30T05:12:34;478.17;;;437.67;;
21213;SDS011;10764;50.850;2.904;2022-07-30T05:15:05;446.55;;;408.55;;
21213;SDS011;10764;50.850;2.904;2022-07-30T05:17:35;446.77;;;408.60;;
21213;SDS011;10764;50.850;2.904;2022-07-30T05:20:06;429.92;;;393.42;;
21213;SDS011;10764;50.850;2.904;2022-07-30T05:22:50;474.25;;;433.88;;
21213;SDS011;10764;50.850;2.904;2022-07-30T05:25:19;427.23;;;390.73;;
21213;SDS011;10764;50.850;2.904;2022-07-30T05:27:48;437.77;;;400.38;;
21213;SDS011;10764;50.850;2.904;2022-07-30T05:30:16;457.17;;;418.23;;
21213;SDS011;10764;50.850;2.904;2022-07-30T05:32:47;462.42;;;422.83;;
21213;SDS011;10764;50.850;2.904;2022-07-30T05:35:15;557.40;;;509.75;;
21213;SDS011;10764;50.850;2.904;2022-07-30T05:37:42;598.38;;;547.35;;
21213;SDS011;10764;50.850;2.904;2022-07-30T05:40:09;564.55;;;516.28;;
21213;SDS011;10764;50.850;2.904;2022-07-30T05:42:37;563.47;;;515.40;;
21213;SDS011;10764;50.850;2.904;2022-07-30T05:45:06;533.33;;;488.00;;
21213;SDS011;10764;50.850;2.904;2022-07-30T05:47:34;473.17;;;432.92;;
21213;SDS011;10764;50.850;2.904;2022-07-30T05:50:01;554.15;;;506.25;;
21213;SDS011;10764;50.850;2.904;2022-07-30T05:52:31;563.45;;;515.05;;
21213;SDS011;10764;50.850;2.904;2022-07-30T05:55:09;563.95;;;515.72;;
21213;SDS011;10764;50.850;2.904;2022-07-30T05:57:51;388.67;;;355.33;;
21213;SDS011;10764;50.850;2.904;2022-07-30T06:00:19;356.25;;;325.83;;
21213;SDS011;10764;50.850;2.904;2022-07-30T06:02:52;373.67;;;339.70;;
21213;SDS011;10764;50.850;2.904;2022-07-30T06:05:25;527.20;;;482.08;;
21213;SDS011;10764;50.850;2.904;2022-07-30T06:07:56;515.40;;;471.40;;
21213;SDS011;10764;50.850;2.904;2022-07-30T06:10:24;512.47;;;469.10;;
21213;SDS011;10764;50.850;2.904;2022-07-30T06:12:53;555.10;;;507.80;;
21213;SDS011;10764;50.850;2.904;2022-07-30T06:15:21;561.75;;;513.08;;
21213;SDS011;10764;50.850;2.904;2022-07-30T06:17:52;550.63;;;503.70;;
21213;SDS011;10764;50.850;2.904;2022-07-30T06:20:51;544.60;;;498.30;;
21213;SDS011;10764;50.850;2.904;2022-07-30T06:23:38;579.10;;;529.50;;
21213;SDS011;10764;50.850;2.904;2022-07-30T06:26:15;589.83;;;539.42;;
21213;SDS011;10764;50.850;2.904;2022-07-30T06:28:42;562.70;;;514.53;;
21213;SDS011;10764;50.850;2.904;2022-07-30T06:31:21;585.97;;;535.95;;
21213;SDS011;10764;50.850;2.904;2022-07-30T06:33:48;579.80;;;530.03;;
21213;SDS011;10764;50.850;2.904;2022-07-30T06:36:15;597.75;;;546.78;;
21213;SDS011;10764;50.850;2.904;2022-07-30T06:38:51;582.17;;;532.53;;
21213;SDS011;10764;50.850;2.904;2022-07-30T06:41:28;591.40;;;540.90;;
21213;SDS011;10764;50.850;2.904;2022-07-30T06:43:57;480.80;;;439.65;;
21213;SDS011;10764;50.850;2.904;2022-07-30T06:46:40;598.47;;;547.15;;
21213;SDS011;10764;50.850;2.904;2022-07-30T06:49:09;584.42;;;534.25;;
21213;SDS011;10764;50.850;2.904;2022-07-30T06:51:36;417.90;;;381.83;;
21213;SDS011;10764;50.850;2.904;2022-07-30T06:54:02;552.20;;;504.92;;
21213;SDS011;10764;50.850;2.904;2022-07-30T06:56:32;677.63;;;620.22;;
21213;SDS011;10764;50.850;2.904;2022-07-30T06:59:02;673.58;;;616.10;;
21213;SDS011;10764;50.850;2.904;2022-07-30T07:01:48;668.45;;;611.85;;
21213;SDS011;10764;50.850;2.904;2022-07-30T07:04:19;629.75;;;576.15;;
21213;SDS011;10764;50.850;2.904;2022-07-30T07:06:46;621.08;;;567.78;;
21213;SDS011;10764;50.850;2.904;2022-07-30T07:09:22;581.65;;;531.85;;
21213;SDS011;10764;50.850;2.904;2022-07-30T07:12:05;659.53;;;603.57;;
21213;SDS011;10764;50.850;2.904;2022-07-30T07:14:32;616.67;;;563.40;;
21213;SDS011;10764;50.850;2.904;2022-07-30T07:16:59;504.42;;;461.65;;
21213;SDS011;10764;50.850;2.904;2022-07-30T07:20:02;562.85;;;514.75;;
21213;SDS011;10764;50.850;2.904;2022-07-30T07:22:44;481.35;;;440.08;;
21213;SDS011;10764;50.850;2.904;2022-07-30T07:25:12;513.42;;;469.52;;
21213;SDS011;10764;50.850;2.904;2022-07-30T07:27:40;492.20;;;450.23;;
21213;SDS011;10764;50.850;2.904;2022-07-30T07:30:07;524.30;;;479.60;;
21213;SDS011;10764;50.850;2.904;2022-07-30T07:32:35;492.05;;;449.92;;
21213;SDS011;10764;50.850;2.904;2022-07-30T07:35:03;456.80;;;417.85;;
21213;SDS011;10764;50.850;2.904;2022-07-30T07:37:33;368.77;;;337.13;;
21213;SDS011;10764;50.850;2.904;2022-07-30T07:40:01;390.45;;;357.13;;
21213;SDS011;10764;50.850;2.904;2022-07-30T07:42:32;352.23;;;322.23;;
21213;SDS011;10764;50.850;2.904;2022-07-30T07:44:59;362.87;;;331.70;;
21213;SDS011;10764;50.850;2.904;2022-07-30T07:47:31;417.88;;;381.75;;
21213;SDS011;10764;50.850;2.904;2022-07-30T07:50:50;441.40;;;403.30;;
21213;SDS011;10764;50.850;2.904;2022-07-30T07:53:26;363.58;;;332.27;;
21213;SDS011;10764;50.850;2.904;2022-07-30T07:55:54;523.65;;;478.45;;
21213;SDS011;10764;50.850;2.904;2022-07-30T07:58:23;432.35;;;395.00;;
21213;SDS011;10764;50.850;2.904;2022-07-30T08:00:54;458.33;;;418.90;;
21213;SDS011;10764;50.850;2.904;2022-07-30T08:03:31;383.65;;;350.83;;
21213;SDS011;10764;50.850;2.904;2022-07-30T08:06:05;313.88;;;287.33;;
21213;SDS011;10764;50.850;2.904;2022-07-30T08:08:46;405.15;;;370.38;;
21213;SDS011;10764;50.850;2.904;2022-07-30T08:11:31;392.77;;;359.10;;
21213;SDS011;10764;50.850;2.904;2022-07-30T08:14:21;327.10;;;299.33;;
21213;SDS011;10764;50.850;2.904;2022-07-30T08:17:17;329.85;;;301.83;;
21213;SDS011;10764;50.850;2.904;2022-07-30T08:20:05;317.55;;;290.55;;
21213;SDS011;10764;50.850;2.904;2022-07-30T08:22:32;356.92;;;326.00;;
21213;SDS011;10764;50.850;2.904;2022-07-30T08:25:00;473.67;;;432.67;;
21213;SDS011;10764;50.850;2.904;2022-07-30T08:27:29;458.50;;;419.17;;
21213;SDS011;10764;50.850;2.904;2022-07-30T08:29:57;532.60;;;487.00;;
21213;SDS011;10764;50.850;2.904;2022-07-30T08:32:24;521.07;;;476.47;;
21213;SDS011;10764;50.850;2.904;2022-07-30T08:34:51;457.38;;;418.05;;
21213;SDS011;10764;50.850;2.904;2022-07-30T08:37:19;546.80;;;499.92;;
21213;SDS011;10764;50.850;2.904;2022-07-30T08:39:46;532.47;;;486.58;;
21213;SDS011;10764;50.850;2.904;2022-07-30T08:42:13;525.25;;;479.98;;
21213;SDS011;10764;50.850;2.904;2022-07-30T08:44:40;437.42;;;399.60;;
21213;SDS011;10764;50.850;2.904;2022-07-30T08:47:09;524.05;;;479.02;;
21213;SDS011;10764;50.850;2.904;2022-07-30T08:50:00;598.07;;;546.37;;
21213;SDS011;10764;50.850;2.904;2022-07-30T08:52:34;669.20;;;612.42;;
21213;SDS011;10764;50.850;2.904;2022-07-30T08:55:05;647.28;;;591.83;;
21213;SDS011;10764;50.850;2.904;2022-07-30T08:57:33;683.17;;;625.33;;
21213;SDS011;10764;50.850;2.904;2022-07-30T09:00:03;619.55;;;566.72;;
21213;SDS011;10764;50.850;2.904;2022-07-30T09:02:32;685.17;;;627.08;;
21213;SDS011;10764;50.850;2.904;2022-07-30T09:05:02;658.60;;;602.80;;
21213;SDS011;10764;50.850;2.904;2022-07-30T09:07:31;688.50;;;630.13;;
21213;SDS011;10764;50.850;2.904;2022-07-30T09:10:00;730.92;;;669.70;;
21213;SDS011;10764;50.850;2.904;2022-07-30T09:12:42;834.05;;;765.63;;
21213;SDS011;10764;50.850;2.904;2022-07-30T09:15:11;895.80;;;823.38;;
21213;SDS011;10764;50.850;2.904;2022-07-30T09:20:14;710.22;;;649.83;;
21213;SDS011;10764;50.850;2.904;2022-07-30T09:22:42;765.83;;;702.30;;
21213;SDS011;10764;50.850;2.904;2022-07-30T09:25:32;329.90;;;301.75;;
21213;SDS011;10764;50.850;2.904;2022-07-30T09:28:29;389.73;;;356.33;;
21213;SDS011;10764;50.850;2.904;2022-07-30T09:31:18;558.75;;;510.70;;
21213;SDS011;10764;50.850;2.904;2022-07-30T09:34:04;291.05;;;266.52;;
21213;SDS011;10764;50.850;2.904;2022-07-30T09:36:57;332.02;;;303.80;;
21213;SDS011;10764;50.850;2.904;2022-07-30T09:39:32;328.05;;;300.25;;
21213;SDS011;10764;50.850;2.904;2022-07-30T09:44:50;390.95;;;357.50;;
21213;SDS011;10764;50.850;2.904;2022-07-30T09:47:39;500.83;;;458.10;;
21213;SDS011;10764;50.850;2.904;2022-07-30T09:50:11;562.00;;;514.00;;
21213;SDS011;10764;50.850;2.904;2022-07-30T09:53:04;466.73;;;427.03;;
21213;SDS011;10764;50.850;2.904;2022-07-30T09:55:34;506.73;;;463.58;;
21213;SDS011;10764;50.850;2.904;2022-07-30T09:58:07;557.50;;;510.35;;
21213;SDS011;10764;50.850;2.904;2022-07-30T10:00:38;607.28;;;555.45;;
21213;SDS011;10764;50.850;2.904;2022-07-30T10:03:24;619.53;;;566.60;;
21213;SDS011;10764;50.850;2.904;2022-07-30T10:06:32;725.10;;;664.20;;
21213;SDS011;10764;50.850;2.904;2022-07-30T10:09:04;675.03;;;617.72;;
21213;SDS011;10764;50.850;2.904;2022-07-30T10:11:44;663.63;;;607.08;;
21213;SDS011;10764;50.850;2.904;2022-07-30T10:14:12;526.67;;;481.70;;
21213;SDS011;10764;50.850;2.904;2022-07-30T10:16:39;481.25;;;439.92;;
21213;SDS011;10764;50.850;2.904;2022-07-30T10:19:06;534.05;;;488.17;;
21213;SDS011;10764;50.850;2.904;2022-07-30T10:22:18;572.83;;;523.10;;
21213;SDS011;10764;50.850;2.904;2022-07-30T10:25:04;577.80;;;527.95;;
21213;SDS011;10764;50.850;2.904;2022-07-30T10:27:50;549.58;;;502.35;;
21213;SDS011;10764;50.850;2.904;2022-07-30T10:30:26;494.83;;;452.25;;
21213;SDS011;10764;50.850;2.904;2022-07-30T10:32:55;607.78;;;555.58;;
21213;SDS011;10764;50.850;2.904;2022-07-30T10:35:25;509.48;;;465.58;;
21213;SDS011;10764;50.850;2.904;2022-07-30T10:38:03;540.00;;;493.65;;
21213;SDS011;10764;50.850;2.904;2022-07-30T10:40:41;507.90;;;464.33;;
21213;SDS011;10764;50.850;2.904;2022-07-30T10:43:16;573.25;;;524.00;;
21213;SDS011;10764;50.850;2.904;2022-07-30T10:49:07;588.35;;;537.53;;
21213;SDS011;10764;50.850;2.904;2022-07-30T10:51:45;568.37;;;519.63;;
21213;SDS011;10764;50.850;2.904;2022-07-30T11:02:31;577.65;;;527.83;;
21213;SDS011;10764;50.850;2.904;2022-07-30T11:14:07;601.03;;;549.30;;
21213;SDS011;10764;50.850;2.904;2022-07-30T11:19:09;661.28;;;604.75;;
21213;SDS011;10764;50.850;2.904;2022-07-30T11:24:48;682.47;;;624.28;;
21213;SDS011;10764;50.850;2.904;2022-07-30T11:27:34;747.17;;;685.15;;
21213;SDS011;10764;50.850;2.904;2022-07-30T11:32:44;691.38;;;633.38;;
21213;SDS011;10764;50.850;2.904;2022-07-30T11:37:57;635.43;;;581.07;;
21213;SDS011;10764;50.850;2.904;2022-07-30T11:40:30;673.83;;;617.10;;
21213;SDS011;10764;50.850;2.904;2022-07-30T11:46:14;412.75;;;377.42;;
21213;SDS011;10764;50.850;2.904;2022-07-30T11:48:58;643.75;;;589.17;;
21213;SDS011;10764;50.850;2.904;2022-07-30T11:51:39;765.67;;;702.42;;
21213;SDS011;10764;50.850;2.904;2022-07-30T11:54:11;639.88;;;586.38;;
21213;SDS011;10764;50.850;2.904;2022-07-30T11:56:52;785.85;;;720.90;;
21213;SDS011;10764;50.850;2.904;2022-07-30T11:59:20;573.88;;;525.28;;
21213;SDS011;10764;50.850;2.904;2022-07-30T12:01:51;690.88;;;632.72;;
21213;SDS011;10764;50.850;2.904;2022-07-30T12:04:21;689.58;;;631.67;;
21213;SDS011;10764;50.850;2.904;2022-07-30T12:06:49;664.90;;;608.78;;
21213;SDS011;10764;50.850;2.904;2022-07-30T12:09:20;687.75;;;629.90;;
21213;SDS011;10764;50.850;2.904;2022-07-30T12:11:52;868.58;;;798.00;;
21213;SDS011;10764;50.850;2.904;2022-07-30T12:14:19;528.05;;;483.20;;
21213;SDS011;10764;50.850;2.904;2022-07-30T12:16:50;578.92;;;529.42;;
21213;SDS011;10764;50.850;2.904;2022-07-30T12:19:18;566.83;;;518.60;;
21213;SDS011;10764;50.850;2.904;2022-07-30T12:21:45;573.22;;;524.28;;
21213;SDS011;10764;50.850;2.904;2022-07-30T12:24:22;633.17;;;579.42;;
21213;SDS011;10764;50.850;2.904;2022-07-30T12:26:50;441.13;;;403.50;;
21213;SDS011;10764;50.850;2.904;2022-07-30T12:29:17;619.63;;;567.00;;
21213;SDS011;10764;50.850;2.904;2022-07-30T12:31:44;740.73;;;679.27;;
21213;SDS011;10764;50.850;2.904;2022-07-30T12:34:18;673.83;;;617.17;;
21213;SDS011;10764;50.850;2.904;2022-07-30T12:36:47;755.33;;;692.67;;
21213;SDS011;10764;50.850;2.904;2022-07-30T12:39:24;595.57;;;544.70;;
21213;SDS011;10764;50.850;2.904;2022-07-30T12:41:52;597.78;;;546.88;;
21213;SDS011;10764;50.850;2.904;2022-07-30T12:44:32;746.47;;;684.72;;
21213;SDS011;10764;50.850;2.904;2022-07-30T12:47:17;428.00;;;391.65;;
21213;SDS011;10764;50.850;2.904;2022-07-30T12:49:45;420.70;;;384.53;;
21213;SDS011;10764;50.850;2.904;2022-07-30T12:52:22;621.53;;;568.85;;
21213;SDS011;10764;50.850;2.904;2022-07-30T12:55:02;595.55;;;544.35;;
21213;SDS011;10764;50.850;2.904;2022-07-30T13:00:33;483.17;;;441.85;;
21213;SDS011;10764;50.850;2.904;2022-07-30T13:03:25;748.38;;;686.42;;
21213;SDS011;10764;50.850;2.904;2022-07-30T13:05:53;531.80;;;486.42;;
21213;SDS011;10764;50.850;2.904;2022-07-30T13:11:10;483.03;;;441.87;;
21213;SDS011;10764;50.850;2.904;2022-07-30T13:13:37;660.70;;;605.13;;
21213;SDS011;10764;50.850;2.904;2022-07-30T13:16:05;452.27;;;413.63;;
21213;SDS011;10764;50.850;2.904;2022-07-30T13:18:33;415.58;;;379.98;;
21213;SDS011;10764;50.850;2.904;2022-07-30T13:21:01;432.77;;;395.55;;
21213;SDS011;10764;50.850;2.904;2022-07-30T13:23:29;699.95;;;641.78;;
21213;SDS011;10764;50.850;2.904;2022-07-30T13:25:57;761.22;;;698.03;;
21213;SDS011;10764;50.850;2.904;2022-07-30T13:28:24;449.73;;;411.17;;
21213;SDS011;10764;50.850;2.904;2022-07-30T13:30:52;649.28;;;594.50;;
21213;SDS011;10764;50.850;2.904;2022-07-30T13:33:19;380.83;;;348.25;;
21213;SDS011;10764;50.850;2.904;2022-07-30T13:35:45;485.57;;;444.03;;
21213;SDS011;10764;50.850;2.904;2022-07-30T13:38:12;823.90;;;756.40;;
21213;SDS011;10764;50.850;2.904;2022-07-30T13:40:40;485.83;;;444.30;;
21213;SDS011;10764;50.850;2.904;2022-07-30T13:43:07;674.78;;;617.88;;
21213;SDS011;10764;50.850;2.904;2022-07-30T13:45:34;673.08;;;616.60;;
21213;SDS011;10764;50.850;2.904;2022-07-30T13:48:02;342.52;;;313.27;;
21213;SDS011;10764;50.850;2.904;2022-07-30T13:50:29;346.20;;;316.75;;
21213;SDS011;10764;50.850;2.904;2022-07-30T13:52:56;362.85;;;331.80;;
21213;SDS011;10764;50.850;2.904;2022-07-30T13:55:27;849.15;;;779.85;;
21213;SDS011;10764;50.850;2.904;2022-07-30T13:57:55;674.80;;;618.20;;
21213;SDS011;10764;50.850;2.904;2022-07-30T14:00:22;364.50;;;333.45;;
21213;SDS011;10764;50.850;2.904;2022-07-30T14:02:49;378.35;;;346.05;;
21213;SDS011;10764;50.850;2.904;2022-07-30T14:05:16;376.27;;;344.25;;
21213;SDS011;10764;50.850;2.904;2022-07-30T14:07:43;396.52;;;362.30;;
21213;SDS011;10764;50.850;2.904;2022-07-30T14:10:10;405.10;;;370.48;;
21213;SDS011;10764;50.850;2.904;2022-07-30T14:12:37;389.23;;;355.95;;
21213;SDS011;10764;50.850;2.904;2022-07-30T14:15:05;411.13;;;375.92;;
21213;SDS011;10764;50.850;2.904;2022-07-30T14:17:32;335.48;;;306.88;;
21213;SDS011;10764;50.850;2.904;2022-07-30T14:20:00;324.77;;;297.27;;
21213;SDS011;10764;50.850;2.904;2022-07-30T14:22:27;322.23;;;294.75;;
21213;SDS011;10764;50.850;2.904;2022-07-30T14:24:54;335.80;;;307.20;;
21213;SDS011;10764;50.850;2.904;2022-07-30T14:27:21;314.75;;;287.98;;
21213;SDS011;10764;50.850;2.904;2022-07-30T14:29:47;358.45;;;327.63;;
21213;SDS011;10764;50.850;2.904;2022-07-30T14:32:14;382.37;;;349.73;;
21213;SDS011;10764;50.850;2.904;2022-07-30T14:34:41;400.77;;;366.35;;
21213;SDS011;10764;50.850;2.904;2022-07-30T14:37:15;684.83;;;626.97;;
21213;SDS011;10764;50.850;2.904;2022-07-30T14:39:42;561.65;;;513.97;;
21213;SDS011;10764;50.850;2.904;2022-07-30T14:42:08;512.38;;;468.60;;
21213;SDS011;10764;50.850;2.904;2022-07-30T14:44:36;544.13;;;497.48;;
21213;SDS011;10764;50.850;2.904;2022-07-30T14:47:03;567.30;;;518.70;;
21213;SDS011;10764;50.850;2.904;2022-07-30T14:49:30;510.42;;;466.77;;
21213;SDS011;10764;50.850;2.904;2022-07-30T14:51:57;557.73;;;509.97;;
21213;SDS011;10764;50.850;2.904;2022-07-30T14:54:24;575.40;;;526.05;;
21213;SDS011;10764;50.850;2.904;2022-07-30T14:56:53;382.88;;;349.92;;
21213;SDS011;10764;50.850;2.904;2022-07-30T14:59:25;491.23;;;448.95;;
21213;SDS011;10764;50.850;2.904;2022-07-30T15:01:53;421.23;;;385.00;;
21213;SDS011;10764;50.850;2.904;2022-07-30T15:04:20;392.95;;;359.38;;
21213;SDS011;10764;50.850;2.904;2022-07-30T15:06:47;325.98;;;298.17;;
21213;SDS011;10764;50.850;2.904;2022-07-30T15:09:14;354.35;;;324.02;;
21213;SDS011;10764;50.850;2.904;2022-07-30T15:11:41;411.73;;;376.38;;
21213;SDS011;10764;50.850;2.904;2022-07-30T15:14:28;482.40;;;441.02;;